Time;durP1;ratioP1;P1;durP2;ratioP2;P2;SDS_P1;SDS_P2;PMS_P1;PMS_P2;Temp;Humidity;BMP_temperature;BMP_pressure;BME280_temperature;BME280_humidity;BME280_pressure;Samples;Min_cycle;Max_cycle;Signal;HPM_P1;HPM_P2
2021/09/13 00:01:13;;;;;;;0.70;0.70;;;;;;;13.67;100.00;-12276.50;6250526;22;20445;-72
2021/09/13 00:03:45;;;;;;;0.87;0.80;;;;;;;13.67;100.00;-12160.41;6276785;22;20875;-71
2021/09/13 00:06:13;;;;;;;0.70;0.70;;;;;;;13.66;100.00;-12074.41;6249357;22;20405;-72
2021/09/13 00:08:41;;;;;;;0.80;0.70;;;;;;;13.61;100.00;-12202.53;6249744;22;20925;-71
2021/09/13 00:11:08;;;;;;;0.70;0.60;;;;;;;13.57;100.00;-12219.59;6277042;22;20389;-72
2021/09/13 00:13:38;;;;;;;0.70;0.60;;;;;;;13.59;100.00;-12028.09;6276824;22;20410;-71
2021/09/13 00:16:06;;;;;;;0.70;0.60;;;;;;;13.58;100.00;-12121.38;6249709;22;20411;-72
2021/09/13 00:18:33;;;;;;;0.90;0.73;;;;;;;13.56;100.00;-12189.19;6250648;22;20373;-72
2021/09/13 00:21:00;;;;;;;0.80;0.70;;;;;;;13.47;100.00;-12389.94;6249643;22;20453;-72
2021/09/13 00:23:27;;;;;;;0.70;0.60;;;;;;;13.45;100.00;-12319.03;6250263;22;20403;-72
2021/09/13 00:25:58;;;;;;;0.70;0.60;;;;;;;13.44;100.00;-12248.22;6278047;22;20412;-72
2021/09/13 00:28:26;;;;;;;0.70;0.60;;;;;;;13.39;100.00;-12943.66;6250269;22;20496;-71
2021/09/13 00:30:53;;;;;;;0.70;0.70;;;;;;;13.31;100.00;-13343.50;6250093;22;20374;-73
2021/09/13 00:33:24;;;;;;;0.70;0.63;;;;;;;13.35;100.00;-13376.88;6224951;22;20427;-73
2021/09/13 00:35:52;;;;;;;0.70;0.70;;;;;;;13.27;100.00;-13998.41;6223619;22;20410;-72
2021/09/13 00:38:19;;;;;;;0.70;0.60;;;;;;;13.29;100.00;-14107.03;6249034;22;20461;-72
2021/09/13 00:40:50;;;;;;;0.70;0.60;;;;;;;13.24;100.00;-14207.03;6249412;22;20489;-73
2021/09/13 00:43:20;;;;;;;0.80;0.70;;;;;;;13.25;100.00;-14262.66;6249913;22;20406;-72
2021/09/13 00:45:49;;;;;;;0.70;0.70;;;;;;;13.27;100.00;-14595.66;6276105;22;20896;-72
2021/09/13 00:48:16;;;;;;;0.70;0.60;;;;;;;13.28;100.00;-14716.78;6250404;22;20374;-73
2021/09/13 00:50:46;;;;;;;0.70;0.60;;;;;;;13.28;100.00;-14928.47;6225008;22;20853;-72
2021/09/13 00:53:13;;;;;;;0.70;0.60;;;;;;;13.25;100.00;-14995.97;6224437;22;20453;-72
2021/09/13 00:55:53;;;;;;;0.80;0.70;;;;;;;13.20;100.00;-15451.09;6252858;22;20368;-73
2021/09/13 00:58:27;;;;;;;0.70;0.60;;;;;;;13.19;100.00;-15697.78;6249425;22;20483;-72
2021/09/13 01:00:54;;;;;;;0.87;0.80;;;;;;;13.15;100.00;-16014.38;6224582;22;20426;-72
2021/09/13 01:03:22;;;;;;;0.70;0.70;;;;;;;13.14;100.00;-16175.34;6249471;22;20781;-72
2021/09/13 01:05:50;;;;;;;0.70;0.60;;;;;;;13.13;100.00;-16293.50;6224754;22;20402;-73
2021/09/13 01:08:20;;;;;;;0.70;0.60;;;;;;;13.13;100.00;-16558.03;6224826;22;20493;-72
2021/09/13 01:10:52;;;;;;;0.70;0.70;;;;;;;13.04;100.00;-16941.38;6250010;22;20400;-72
2021/09/13 01:13:21;;;;;;;0.70;0.60;;;;;;;12.96;100.00;-17173.91;6249678;22;20475;-73
2021/09/13 01:15:49;;;;;;;0.70;0.60;;;;;;;13.02;100.00;-17336.16;6249718;22;20368;-73
2021/09/13 01:18:19;;;;;;;0.70;0.70;;;;;;;13.06;100.00;-17629.09;6224587;22;20422;-71
2021/09/13 01:20:47;;;;;;;0.70;0.70;;;;;;;13.16;100.00;-17968.50;6249880;22;20409;-72
2021/09/13 01:23:23;;;;;;;0.70;0.60;;;;;;;13.24;100.00;-18428.44;6224572;22;20453;-72
2021/09/13 01:25:57;;;;;;;0.73;0.70;;;;;;;13.21;100.00;-18800.22;6229871;22;20402;-72
2021/09/13 01:28:25;;;;;;;0.70;0.60;;;;;;;13.24;100.00;-18956.88;6224581;22;20741;-72
2021/09/13 01:30:55;;;;;;;0.70;0.60;;;;;;;13.28;100.00;-19098.91;6249299;22;20406;-72
2021/09/13 01:33:25;;;;;;;0.70;0.70;;;;;;;13.22;100.00;-19125.13;6224868;22;20418;-72
2021/09/13 01:36:16;;;;;;;0.70;0.60;;;;;;;13.13;100.00;-19165.69;6275507;22;20696;-72
2021/09/13 01:38:44;;;;;;;0.70;0.60;;;;;;;13.08;100.00;-18988.22;6248872;22;20510;-72
2021/09/13 01:41:33;;;;;;;0.70;0.60;;;;;;;13.12;100.00;-18868.41;6249724;22;20722;-72
2021/09/13 01:44:07;;;;;;;0.70;0.70;;;;;;;13.22;100.00;-18729.88;6226011;22;20397;-72
2021/09/13 01:46:34;;;;;;;0.70;0.60;;;;;;;13.12;100.00;-18797.97;6250095;22;20479;-72
2021/09/13 01:49:02;;;;;;;0.70;0.60;;;;;;;13.07;100.00;-18842.19;6249632;22;20437;-72
2021/09/13 01:51:29;;;;;;;0.70;0.60;;;;;;;13.02;100.00;-18780.72;6248819;22;20494;-72
2021/09/13 01:53:58;;;;;;;0.70;0.70;;;;;;;12.95;100.00;-18935.00;6248734;22;20446;-73
2021/09/13 01:56:26;;;;;;;0.80;0.77;;;;;;;12.91;100.00;-18994.41;6225079;22;20452;-72
2021/09/13 01:58:53;;;;;;;0.70;0.60;;;;;;;12.88;100.00;-18807.56;6227137;22;20410;-72
2021/09/13 02:01:21;;;;;;;0.70;0.60;;;;;;;12.85;100.00;-19023.00;6251525;22;20765;-72
2021/09/13 02:03:49;;;;;;;0.70;0.70;;;;;;;12.75;100.00;-19179.25;6251436;22;20403;-72
2021/09/13 02:06:16;;;;;;;0.70;0.70;;;;;;;12.77;100.00;-19232.53;6226196;22;20876;-73
2021/09/13 02:08:44;;;;;;;0.70;0.60;;;;;;;12.78;100.00;-19386.16;6250993;22;20517;-73
2021/09/13 02:11:12;;;;;;;0.80;0.70;;;;;;;12.87;100.00;-19471.16;6225616;22;20407;-72
2021/09/13 02:13:41;;;;;;;0.70;0.70;;;;;;;12.80;100.00;-19934.66;6251324;22;20868;-72
2021/09/13 02:16:09;;;;;;;1.33;0.97;;;;;;;12.80;100.00;-20130.75;6226549;22;20437;-73
2021/09/13 02:18:38;;;;;;;0.70;0.70;;;;;;;12.75;100.00;-19108.84;6251734;22;20403;-72
2021/09/13 02:21:06;;;;;;;0.70;0.60;;;;;;;12.75;100.00;-17073.81;6250985;22;20443;-72
2021/09/13 02:23:33;;;;;;;1.03;0.93;;;;;;;12.65;100.00;-17464.13;6250867;22;20423;-73
2021/09/13 02:26:06;;;;;;;0.70;0.67;;;;;;;12.64;100.00;-18248.59;6227874;22;20440;-73
2021/09/13 02:28:39;;;;;;;0.70;0.60;;;;;;;12.68;100.00;-18925.97;6250514;22;20415;-73
2021/09/13 02:31:07;;;;;;;0.70;0.60;;;;;;;12.66;100.00;-19420.75;6250193;22;20464;-73
2021/09/13 02:33:34;;;;;;;0.70;0.60;;;;;;;12.64;100.00;-19797.31;6250059;22;20395;-72
2021/09/13 02:36:02;;;;;;;0.70;0.60;;;;;;;12.58;100.00;-20082.53;6250775;22;20449;-72
2021/09/13 02:38:30;;;;;;;0.70;0.50;;;;;;;12.53;100.00;-20332.53;6226193;22;20933;-72
2021/09/13 02:40:58;;;;;;;0.70;0.70;;;;;;;12.48;100.00;-20444.25;6251325;22;20851;-72
2021/09/13 02:43:28;;;;;;;0.70;0.63;;;;;;;12.49;100.00;-20567.63;6251225;22;20436;-72
2021/09/13 02:46:01;;;;;;;0.70;0.60;;;;;;;12.48;100.00;-20713.09;6250093;22;20870;-73
2021/09/13 02:48:29;;;;;;;0.70;0.60;;;;;;;12.39;100.00;-20911.59;6251251;22;20430;-72
2021/09/13 02:50:56;;;;;;;1.90;1.80;;;;;;;12.37;100.00;-21001.44;6250398;22;20422;-73
2021/09/13 02:53:26;;;;;;;0.70;0.60;;;;;;;12.42;100.00;-21019.78;6250749;22;20963;-72
2021/09/13 02:55:54;;;;;;;0.70;0.60;;;;;;;12.41;100.00;-21019.38;6250958;22;20440;-72
2021/09/13 02:58:21;;;;;;;0.70;0.60;;;;;;;12.32;100.00;-21017.16;6250908;22;20430;-72
2021/09/13 03:00:50;;;;;;;0.70;0.60;;;;;;;12.40;100.00;-21019.22;6250528;22;20403;-72
2021/09/13 03:03:20;;;;;;;0.70;0.60;;;;;;;12.44;100.00;-21020.34;6250763;22;20442;-72
2021/09/13 03:05:48;;;;;;;0.70;0.60;;;;;;;12.45;100.00;-21020.47;6251054;22;20444;-72
2021/09/13 03:08:18;;;;;;;0.70;0.60;;;;;;;12.46;100.00;-21020.88;6249876;22;20438;-73
2021/09/13 03:10:46;;;;;;;0.70;0.60;;;;;;;12.45;100.00;-21020.47;6278045;22;20660;-73
2021/09/13 03:13:14;;;;;;;0.70;0.60;;;;;;;12.47;100.00;-21021.03;6250619;22;20409;-72
2021/09/13 03:15:43;;;;;;;0.70;0.60;;;;;;;12.48;100.00;-21021.44;6250548;22;20811;-72
2021/09/13 03:18:12;;;;;;;0.70;0.60;;;;;;;12.49;100.00;-21021.72;6250389;22;20410;-72
2021/09/13 03:20:42;;;;;;;0.70;0.70;;;;;;;12.49;100.00;-21021.59;6250791;22;20397;-72
2021/09/13 03:23:09;;;;;;;0.70;0.60;;;;;;;12.47;100.00;-21021.16;6250218;22;20430;-72
2021/09/13 03:25:36;;;;;;;0.70;0.60;;;;;;;12.42;100.00;-21019.78;6278178;22;20383;-71
2021/09/13 03:28:04;;;;;;;0.70;0.70;;;;;;;12.43;100.00;-21019.91;6250133;22;20416;-72
2021/09/13 03:30:35;;;;;;;0.70;0.60;;;;;;;12.37;100.00;-21018.25;6251799;22;20399;-72
2021/09/13 03:33:03;;;;;;;0.70;0.60;;;;;;;12.37;100.00;-21018.25;6250508;22;20492;-72
2021/09/13 03:35:31;;;;;;;0.90;0.90;;;;;;;12.32;100.00;-21017.16;6225083;22;20459;-72
2021/09/13 03:38:02;;;;;;;0.70;0.70;;;;;;;12.30;100.00;-21016.47;6250169;22;20778;-73
2021/09/13 03:40:29;;;;;;;0.70;0.70;;;;;;;12.27;100.00;-21015.66;6249751;22;20714;-73
2021/09/13 03:42:57;;;;;;;0.70;0.70;;;;;;;12.27;100.00;-21015.66;6249817;22;20406;-72
2021/09/13 03:45:28;;;;;;;0.70;0.60;;;;;;;12.22;100.00;-21014.25;6250223;22;20403;-72
2021/09/13 03:48:16;;;;;;;0.70;0.67;;;;;;;12.29;100.00;-21016.34;6249976;22;20891;-73
2021/09/13 03:50:46;;;;;;;0.70;0.60;;;;;;;12.32;100.00;-21017.03;6225800;22;20402;-73
2021/09/13 03:53:15;;;;;;;0.70;0.60;;;;;;;12.32;100.00;-21017.03;6249963;22;20803;-71
2021/09/13 03:55:42;;;;;;;0.70;0.63;;;;;;;12.44;100.00;-21020.34;6249550;22;20492;-73
2021/09/13 03:58:11;;;;;;;0.70;0.60;;;;;;;12.45;100.00;-21020.63;6249580;22;20457;-72
2021/09/13 04:00:38;;;;;;;0.70;0.60;;;;;;;12.39;100.00;-21018.97;6276796;22;20866;-72
2021/09/13 04:03:17;;;;;;;1.20;1.10;;;;;;;12.36;100.00;-21018.13;6249828;22;20402;-72
2021/09/13 04:06:07;;;;;;;0.67;0.57;;;;;;;12.34;100.00;-21017.56;6249040;22;20736;-72
2021/09/13 04:12:04;;;;;;;0.70;0.60;;;;;;;12.31;100.00;-21016.75;6241236;22;20398;-72
2021/09/13 04:14:53;;;;;;;0.80;0.80;;;;;;;12.36;100.00;-21018.13;6273841;22;20429;-72
2021/09/13 04:17:39;;;;;;;0.70;0.60;;;;;;;12.36;100.00;-21018.13;6276803;22;20374;-72
2021/09/13 04:21:00;;;;;;;0.70;0.60;;;;;;;12.33;100.00;-21017.44;6249268;22;20410;-72
2021/09/13 04:23:49;;;;;;;0.90;0.90;;;;;;;12.34;100.00;-21017.56;6276174;22;20453;-71
2021/09/13 04:26:30;;;;;;;0.70;0.60;;;;;;;12.40;100.00;-21019.09;6276354;22;20705;-72
2021/09/13 04:29:16;;;;;;;0.73;0.70;;;;;;;12.35;100.00;-21017.84;6279179;22;20377;-72
2021/09/13 04:32:16;;;;;;;0.70;0.70;;;;;;;12.37;100.00;-21018.41;6277416;22;20878;-72
2021/09/13 04:35:18;;;;;;;2.30;1.53;;;;;;;12.35;100.00;-21017.84;6181688;23;20429;-72
2021/09/13 04:38:01;;;;;;;0.70;0.50;;;;;;;12.30;100.00;-21016.47;6239872;22;20517;-73
2021/09/13 04:40:49;;;;;;;0.70;0.60;;;;;;;12.27;100.00;-21015.66;6246688;22;20729;-72
2021/09/13 04:43:39;;;;;;;0.70;0.60;;;;;;;12.19;100.00;-21013.44;6246150;22;20421;-72
2021/09/13 04:46:29;;;;;;;0.87;0.87;;;;;;;12.19;100.00;-21013.56;6247288;22;20855;-72
2021/09/13 04:49:15;;;;;;;0.70;0.60;;;;;;;12.14;100.00;-21012.06;6251963;22;20862;-72
2021/09/13 04:51:57;;;;;;;0.70;0.60;;;;;;;12.08;100.00;-21010.69;6274367;22;20452;-73
2021/09/13 04:54:50;;;;;;;0.70;0.67;;;;;;;12.19;100.00;-21013.56;6253097;22;20919;-72
2021/09/13 04:57:17;;;;;;;0.70;0.60;;;;;;;12.22;100.00;-21014.41;6249321;22;20778;-72
2021/09/13 04:59:45;;;;;;;0.70;0.60;;;;;;;12.26;100.00;-21015.38;6249136;22;20405;-72
2021/09/13 05:02:12;;;;;;;0.70;0.60;;;;;;;12.22;100.00;-21014.41;6249691;22;20864;-72
2021/09/13 05:04:41;;;;;;;0.70;0.60;;;;;;;12.27;100.00;-21015.66;6224980;22;20403;-73
2021/09/13 05:07:10;;;;;;;0.70;0.70;;;;;;;12.21;100.00;-21014.13;6223831;22;20418;-72
2021/09/13 05:09:37;;;;;;;0.70;0.60;;;;;;;12.19;100.00;-21013.56;6249541;22;20532;-72
2021/09/13 05:12:06;;;;;;;0.70;0.60;;;;;;;12.25;100.00;-21015.09;6249333;22;20403;-72
2021/09/13 05:14:34;;;;;;;0.70;0.60;;;;;;;12.25;100.00;-21015.09;6249429;22;20468;-73
2021/09/13 05:17:04;;;;;;;0.70;0.67;;;;;;;12.25;100.00;-21015.09;6249710;22;20962;-72
2021/09/13 05:19:31;;;;;;;0.70;0.60;;;;;;;12.18;100.00;-21013.16;6249062;22;20852;-72
2021/09/13 05:22:00;;;;;;;0.70;0.60;;;;;;;12.19;100.00;-21013.56;6249139;22;20398;-72
2021/09/13 05:24:34;;;;;;;0.70;0.60;;;;;;;12.32;100.00;-21017.03;6249626;22;20911;-72
2021/09/13 05:27:07;;;;;;;0.70;0.70;;;;;;;12.37;100.00;-21018.25;6248820;22;20875;-73
2021/09/13 05:29:36;;;;;;;0.70;0.60;;;;;;;12.44;100.00;-21020.34;6224627;22;20433;-72
2021/09/13 05:32:06;;;;;;;0.70;0.70;;;;;;;12.51;100.00;-21022.25;6251278;22;20413;-72
2021/09/13 05:34:33;;;;;;;0.70;0.50;;;;;;;12.55;100.00;-21023.38;6251249;22;20403;-72
2021/09/13 05:37:00;;;;;;;0.70;0.70;;;;;;;12.61;100.00;-21024.75;6250512;22;20488;-72
2021/09/13 05:39:27;;;;;;;0.70;0.60;;;;;;;12.69;100.00;-21026.97;6251295;22;20960;-72
2021/09/13 05:41:57;;;;;;;1.10;1.00;;;;;;;12.72;100.00;-21027.94;6251255;22;20452;-72
2021/09/13 05:44:28;;;;;;;0.70;0.60;;;;;;;12.77;100.00;-21029.16;6250776;22;20391;-72
2021/09/13 05:46:58;;;;;;;0.70;0.70;;;;;;;12.80;100.00;-21030.13;6251483;22;20398;-71
2021/09/13 05:49:27;;;;;;;0.70;0.70;;;;;;;12.86;100.00;-21031.66;6251181;22;20887;-71
2021/09/13 05:51:54;;;;;;;0.70;0.60;;;;;;;12.94;100.00;-21033.72;6250775;22;20414;-71
2021/09/13 05:54:32;;;;;;;0.80;0.80;;;;;;;13.06;100.00;-21037.16;6251464;22;20424;-71
2021/09/13 05:56:59;;;;;;;0.70;0.60;;;;;;;13.20;100.00;-21040.75;6277647;22;20411;-71
2021/09/13 05:59:26;;;;;;;0.70;0.60;;;;;;;13.29;100.00;-21043.25;6278273;22;20889;-71
2021/09/13 06:02:05;;;;;;;0.70;0.70;;;;;;;13.36;100.00;-21045.16;6251175;22;20724;-71
2021/09/13 06:04:35;;;;;;;0.70;0.63;;;;;;;13.51;100.00;-21049.16;6226028;22;20483;-71
2021/09/13 06:07:05;;;;;;;0.70;0.60;;;;;;;13.62;100.00;-21052.06;6250728;22;20791;-71
2021/09/13 06:09:33;;;;;;;1.00;1.00;;;;;;;13.77;100.00;-21056.19;6250869;22;20923;-71
2021/09/13 06:12:00;;;;;;;0.80;0.80;;;;;;;13.86;100.00;-21058.66;6250704;22;20412;-71
2021/09/13 06:14:36;;;;;;;0.70;0.60;;;;;;;13.95;100.00;-21061.00;6250606;22;20394;-72
2021/09/13 06:17:03;;;;;;;0.70;0.67;;;;;;;14.07;100.00;-20954.00;6250996;22;20472;-71
2021/09/13 06:19:42;;;;;;;0.70;0.70;;;;;;;14.15;100.00;-20618.66;6250926;22;20927;-71
2021/09/13 06:22:11;;;;;;;0.70;0.60;;;;;;;14.25;100.00;-20104.81;6248111;22;20416;-71
2021/09/13 06:24:39;;;;;;;1.27;0.90;;;;;;;14.33;100.00;-19527.22;6250773;22;20403;-71
2021/09/13 06:27:09;;;;;;;0.70;0.60;;;;;;;14.43;100.00;-18949.72;6250655;22;20455;-71
2021/09/13 06:29:36;;;;;;;0.70;0.60;;;;;;;14.55;100.00;-18236.19;6250837;22;20723;-71
2021/09/13 06:32:03;;;;;;;0.70;0.70;;;;;;;14.49;100.00;-17584.22;6250816;22;20716;-71
2021/09/13 06:34:31;;;;;;;1.27;0.73;;;;;;;14.55;100.00;-16772.94;6250339;22;20437;-72
2021/09/13 06:37:00;;;;;;;0.70;0.70;;;;;;;14.58;100.00;-15986.03;6250541;22;20544;-72
2021/09/13 06:39:27;;;;;;;0.70;0.70;;;;;;;14.64;100.00;-15027.63;6250398;22;20431;-71
2021/09/13 06:41:54;;;;;;;0.70;0.70;;;;;;;14.64;100.00;-14100.69;6224726;22;20742;-71
2021/09/13 06:44:25;;;;;;;0.80;0.70;;;;;;;14.66;100.00;-13052.50;6250661;22;20415;-71
2021/09/13 06:47:43;;;;;;;0.80;0.77;;;;;;;14.74;100.00;-11951.63;6226197;22;20391;-71
2021/09/13 06:49:49;;;;;;;0.70;0.67;;;;;;;14.89;100.00;-10658.50;6245451;22;20424;-71
2021/09/13 06:52:18;;;;;;;0.70;0.70;;;;;;;14.94;100.00;-9143.22;6250550;22;20412;-71
2021/09/13 06:54:47;;;;;;;0.77;0.70;;;;;;;14.90;100.00;-7864.50;6225589;22;20439;-71
2021/09/13 06:57:14;;;;;;;0.97;0.97;;;;;;;14.95;100.00;-6507.25;6276987;22;20428;-71
2021/09/13 06:59:41;;;;;;;1.27;1.17;;;;;;;14.97;100.00;-5377.28;6277564;22;20704;-72
2021/09/13 07:02:08;;;;;;;0.70;0.60;;;;;;;15.06;100.00;-4246.84;6251199;22;20457;-72
2021/09/13 07:04:36;;;;;;;0.70;0.60;;;;;;;15.21;100.00;-2821.31;6277331;22;20365;-72
2021/09/13 07:07:03;;;;;;;0.70;0.60;;;;;;;15.41;100.00;-1445.03;6277426;22;20372;-72
2021/09/13 07:09:31;;;;;;;0.70;0.70;;;;;;;15.64;100.00;614.00;6277686;22;20425;-72
2021/09/13 07:12:00;;;;;;;0.70;0.60;;;;;;;15.85;100.00;2497.56;6251092;22;20393;-72
2021/09/13 07:14:27;;;;;;;0.80;0.80;;;;;;;16.04;100.00;4543.50;6250078;22;20415;-71
2021/09/13 07:16:54;;;;;;;1.53;1.23;;;;;;;16.04;100.00;6107.22;6277513;22;20508;-72
2021/09/13 07:19:21;;;;;;;0.70;0.60;;;;;;;16.25;100.00;7923.09;6277777;22;20839;-71
2021/09/13 07:21:48;;;;;;;0.70;0.70;;;;;;;16.28;100.00;9548.22;6277314;22;20476;-72
2021/09/13 07:24:20;;;;;;;0.70;0.60;;;;;;;16.37;100.00;11181.13;6250284;22;20417;-72
2021/09/13 07:26:48;;;;;;;0.70;0.60;;;;;;;16.38;100.00;12866.47;6250822;22;20815;-71
2021/09/13 07:29:15;;;;;;;0.70;0.60;;;;;;;16.48;100.00;14634.72;6277348;22;20489;-72
2021/09/13 07:31:43;;;;;;;0.70;0.70;;;;;;;16.54;100.00;16219.13;6249995;22;20738;-72
2021/09/13 07:34:10;;;;;;;0.70;0.60;;;;;;;16.59;100.00;17714.88;6250625;22;20471;-72
2021/09/13 07:36:37;;;;;;;0.70;0.60;;;;;;;16.48;100.00;18872.53;6276840;22;20752;-72
2021/09/13 07:39:06;;;;;;;0.70;0.70;;;;;;;16.63;100.00;20504.03;6277571;22;20509;-72
2021/09/13 07:41:34;;;;;;;1.00;0.90;;;;;;;16.69;100.00;21956.22;6225044;22;20499;-71
2021/09/13 07:44:02;;;;;;;1.03;0.93;;;;;;;16.93;100.00;23358.47;6249872;22;20391;-72
2021/09/13 07:46:29;;;;;;;1.63;1.30;;;;;;;17.12;100.00;24444.38;6250269;22;20864;-72
2021/09/13 07:48:56;;;;;;;0.80;0.70;;;;;;;17.40;100.00;25474.06;6277384;22;20847;-72
2021/09/13 07:51:23;;;;;;;0.70;0.70;;;;;;;17.67;100.00;25116.78;6250175;22;20724;-72
2021/09/13 07:53:50;;;;;;;0.90;0.70;;;;;;;17.85;100.00;23193.75;6277188;22;20443;-72
2021/09/13 07:56:17;;;;;;;0.80;0.70;;;;;;;18.00;100.00;19498.38;6276990;22;20454;-72
2021/09/13 07:58:47;;;;;;;0.70;0.60;;;;;;;18.01;100.00;12137.97;6250026;22;20414;-72
2021/09/13 08:01:18;;;;;;;1.00;0.90;;;;;;;17.99;100.00;1785.66;6250256;22;20417;-72
2021/09/13 08:03:45;;;;;;;0.70;0.60;;;;;;;18.09;100.00;-12562.13;6277237;22;20531;-72
2021/09/13 08:06:13;;;;;;;0.90;0.90;;;;;;;18.34;100.00;-21179.28;6276258;22;20383;-72
2021/09/13 08:08:43;;;;;;;1.10;1.00;;;;;;;18.52;100.00;-21184.09;6276415;22;20425;-72
2021/09/13 08:11:10;;;;;;;0.80;0.77;;;;;;;19.08;100.00;-21198.88;6250160;22;20391;-72
2021/09/13 08:13:39;;;;;;;1.00;0.93;;;;;;;19.00;100.00;-21196.81;6249486;22;20536;-73
2021/09/13 08:16:13;;;;;;;0.70;0.60;;;;;;;19.51;100.00;-21210.50;6249877;22;20406;-73
2021/09/13 08:18:42;;;;;;;0.70;0.60;;;;;;;19.57;100.00;-21212.00;6249227;22;20816;-72
2021/09/13 08:21:12;;;;;;;0.70;0.60;;;;;;;19.76;100.00;-21217.31;6276364;22;20364;-72
2021/09/13 08:23:43;;;;;;;0.80;0.70;;;;;;;19.85;100.00;-21219.53;6276310;22;20373;-73
2021/09/13 08:26:11;;;;;;;1.00;0.90;;;;;;;20.26;100.00;-21230.72;6276750;22;20833;-72
2021/09/13 08:28:41;;;;;;;1.23;1.13;;;;;;;20.12;100.00;-21226.75;6276759;22;20342;-73
2021/09/13 08:31:08;;;;;;;0.73;0.63;;;;;;;20.16;100.00;-21227.84;6276270;22;20380;-72
2021/09/13 08:33:36;;;;;;;6.40;1.30;;;;;;;20.06;100.00;-21225.25;6223940;22;20361;-72
2021/09/13 08:36:05;;;;;;;1.10;1.00;;;;;;;20.08;100.00;-21225.81;6276512;22;20403;-72
2021/09/13 08:38:32;;;;;;;1.37;1.27;;;;;;;20.33;100.00;-21232.50;6276802;22;20410;-72
2021/09/13 08:41:01;;;;;;;1.73;1.03;;;;;;;20.09;100.00;-21226.06;6276965;22;20415;-73
2021/09/13 08:43:28;;;;;;;0.80;0.80;;;;;;;20.54;100.00;-21237.97;6223874;22;20747;-72
2021/09/13 08:46:07;;;;;;;2.33;1.47;;;;;;;20.96;100.00;-21249.28;6249540;22;20411;-72
2021/09/13 08:48:48;;;;;;;0.80;0.67;;;;;;;21.23;100.00;-21256.53;6249557;22;20387;-72
2021/09/13 08:51:19;;;;;;;1.23;1.13;;;;;;;20.93;100.00;-21248.47;6224260;22;20406;-73
2021/09/13 08:53:54;;;;;;;0.70;0.60;;;;;;;21.26;100.00;-21257.19;6276552;22;20406;-72
2021/09/13 08:56:27;;;;;;;0.70;0.60;;;;;;;21.58;100.00;-21265.78;6276776;22;20410;-72
2021/09/13 08:58:55;;;;;;;2.13;0.80;;;;;;;22.02;100.00;-21277.66;6249454;22;20448;-73
2021/09/13 09:01:22;;;;;;;0.90;0.70;;;;;;;22.93;100.00;-21301.88;6250043;22;20390;-72
2021/09/13 09:03:50;;;;;;;1.53;0.90;;;;;;;22.93;100.00;-21301.88;6224269;22;20490;-70
2021/09/13 09:06:33;;;;;;;1.53;0.80;;;;;;;23.28;100.00;-21311.28;6276121;22;20379;-70
2021/09/13 09:09:03;;;;;;;1.40;1.03;;;;;;;23.56;100.00;-21318.75;6249084;22;20806;-70
2021/09/13 09:11:51;;;;;;;0.90;0.80;;;;;;;23.53;100.00;-21317.81;6250861;22;20378;-72
2021/09/13 09:14:25;;;;;;;1.20;0.83;;;;;;;23.46;100.00;-21316.03;6249473;22;20741;-70
2021/09/13 09:16:57;;;;;;;0.73;0.60;;;;;;;23.22;100.00;-21309.50;6224166;22;20803;-73
2021/09/13 09:19:24;;;;;;;0.80;0.70;;;;;;;24.81;100.00;-21351.91;6249742;22;20872;-73
2021/09/13 09:21:52;;;;;;;1.57;1.47;;;;;;;23.96;100.00;-21329.34;6249009;22;20397;-73
2021/09/13 09:24:20;;;;;;;1.30;1.20;;;;;;;24.50;100.00;-21343.75;6249159;22;20441;-73
2021/09/13 09:27:01;;;;;;;0.80;0.70;;;;;;;24.62;100.00;-21346.75;6276901;22;20363;-70
2021/09/13 09:29:31;;;;;;;0.97;0.87;;;;;;;24.49;100.00;-21343.47;6249242;22;20395;-71
2021/09/13 09:31:59;;;;;;;1.47;1.37;;;;;;;24.71;100.00;-21349.19;6276496;22;20438;-70
2021/09/13 09:34:28;;;;;;;2.10;2.00;;;;;;;24.42;100.00;-21341.59;6276793;22;20371;-70
2021/09/13 09:37:10;;;;;;;1.10;1.00;;;;;;;24.01;100.00;-21330.72;6249172;22;20430;-73
2021/09/13 09:39:39;;;;;;;1.80;1.20;;;;;;;24.61;100.00;-21346.47;6275814;22;20372;-72
2021/09/13 09:42:10;;;;;;;1.50;1.10;;;;;;;25.86;100.00;-21379.81;6248883;22;20404;-70
2021/09/13 09:44:41;;;;;;;3.83;2.77;;;;;;;25.98;100.00;-21383.06;6249216;22;20394;-70
2021/09/13 09:47:11;;;;;;;1.07;0.97;;;;;;;25.82;100.00;-21378.75;6224215;22;20402;-71
2021/09/13 09:49:44;;;;;;;0.80;0.70;;;;;;;24.92;100.00;-21354.75;6223834;22;20413;-70
2021/09/13 09:52:26;;;;;;;1.10;1.00;;;;;;;25.01;100.00;-21357.31;6276069;22;20379;-70
2021/09/13 09:55:06;;;;;;;1.10;1.00;;;;;;;24.82;100.00;-21352.16;6249041;22;20407;-70
2021/09/13 09:57:33;;;;;;;1.20;1.10;;;;;;;25.45;100.00;-21368.97;6275482;22;20410;-70
2021/09/13 10:00:17;;;;;;;1.17;0.90;;;;;;;25.52;100.00;-21370.75;6248923;22;20868;-71
2021/09/13 10:03:09;;;;;;;2.70;2.30;;;;;;;25.71;100.00;-21375.75;6255368;22;20588;-71
2021/09/13 10:05:36;;;;;;;2.47;1.67;;;;;;;25.60;100.00;-21372.78;6249637;22;20389;-70
2021/09/13 10:08:06;;;;;;;2.10;1.47;;;;;;;26.11;100.00;-21386.47;6248560;22;20434;-70
2021/09/13 10:10:33;;;;;;;2.50;2.40;;;;;;;25.89;100.00;-21380.63;6276440;22;20382;-70
2021/09/13 10:13:01;;;;;;;1.03;0.93;;;;;;;26.24;100.00;-21389.84;6247758;22;20740;-71
2021/09/13 10:15:29;;;;;;;0.90;0.80;;;;;;;26.05;100.00;-21384.69;6248198;22;20399;-70
2021/09/13 10:17:59;;;;;;;0.90;0.67;;;;;;;26.84;100.00;-21405.69;6250738;22;20465;-71
2021/09/13 10:20:26;;;;;;;0.80;0.60;;;;;;;26.29;100.00;-21391.06;6278202;22;20863;-70
2021/09/13 10:22:55;;;;;;;1.03;0.73;;;;;;;26.25;100.00;-21390.13;6278110;22;20407;-70
2021/09/13 10:25:28;;;;;;;1.10;1.00;;;;;;;25.83;100.00;-21379.00;6277813;22;20864;-70
2021/09/13 10:28:03;;;;;;;0.87;0.67;;;;;;;26.13;100.00;-21387.00;6251461;22;20417;-70
2021/09/13 10:30:33;;;;;;;0.70;0.60;;;;;;;26.09;100.00;-21385.78;6225779;22;20395;-71
2021/09/13 10:33:11;;;;;;;0.70;0.50;;;;;;;25.75;100.00;-21376.97;6250343;22;20429;-70
2021/09/13 10:35:53;;;;;;;0.80;0.70;;;;;;;25.60;100.00;-21372.91;6278062;22;20462;-71
2021/09/13 10:38:40;;;;;;;0.70;0.53;;;;;;;25.72;100.00;-21376.03;6278095;22;20426;-70
2021/09/13 10:41:11;;;;;;;0.97;0.83;;;;;;;26.15;100.00;-21387.41;6278102;22;20375;-70
2021/09/13 10:44:03;;;;;;;1.00;0.80;;;;;;;26.97;100.00;-21409.34;6251261;22;20759;-70
2021/09/13 10:47:00;;;;;;;1.20;1.10;;;;;;;26.32;100.00;-21391.88;6277362;22;20370;-70
2021/09/13 10:49:27;;;;;;;0.80;0.70;;;;;;;26.23;100.00;-21389.72;6251386;22;20376;-70
2021/09/13 10:52:27;;;;;;;0.70;0.60;;;;;;;26.28;100.00;-21390.94;6250528;22;20634;-71
2021/09/13 10:55:22;;;;;;;0.80;0.60;;;;;;;25.82;100.00;-21378.75;6277806;22;20387;-71
2021/09/13 10:58:03;;;;;;;0.87;0.80;;;;;;;26.24;100.00;-21389.84;6225933;22;20828;-71
2021/09/13 11:00:55;;;;;;;1.10;1.00;;;;;;;25.87;100.00;-21380.09;6250785;22;20795;-70
2021/09/13 11:03:42;;;;;;;0.70;0.60;;;;;;;25.78;100.00;-21377.78;6278048;22;20678;-72
2021/09/13 11:06:43;;;;;;;0.93;0.83;;;;;;;26.06;100.00;-21385.09;6250029;22;20764;-70
2021/09/13 11:09:18;;;;;;;1.03;0.87;;;;;;;26.32;100.00;-21392.00;6277203;22;20504;-70
2021/09/13 11:11:51;;;;;;;1.47;0.90;;;;;;;26.98;100.00;-21409.59;6251204;22;20376;-70
2021/09/13 11:14:21;;;;;;;1.23;1.10;;;;;;;25.48;100.00;-21369.66;6251144;22;20371;-70
2021/09/13 11:16:50;;;;;;;0.80;0.70;;;;;;;24.48;100.00;-21343.22;6277443;22;20418;-70
2021/09/13 11:19:22;;;;;;;2.83;1.37;;;;;;;24.92;100.00;-21354.88;6251507;22;20451;-70
2021/09/13 11:21:52;;;;;;;0.80;0.70;;;;;;;24.67;100.00;-21348.09;6250408;22;20399;-70
2021/09/13 11:24:22;;;;;;;1.80;1.67;;;;;;;24.67;100.00;-21348.09;6250217;22;20433;-70
2021/09/13 11:26:53;;;;;;;1.13;1.00;;;;;;;23.79;100.00;-21324.75;6277241;22;20384;-73
2021/09/13 11:29:25;;;;;;;0.80;0.60;;;;;;;24.43;100.00;-21341.84;6277023;22;20394;-70
2021/09/13 11:31:55;;;;;;;0.70;0.60;;;;;;;24.85;100.00;-21352.84;6277397;22;20367;-70
2021/09/13 11:34:31;;;;;;;0.70;0.60;;;;;;;24.90;100.00;-21354.34;6277553;22;20386;-72
2021/09/13 11:37:06;;;;;;;0.80;0.70;;;;;;;25.23;100.00;-21363.16;6249903;22;20442;-71
2021/09/13 11:39:35;;;;;;;0.80;0.80;;;;;;;25.79;100.00;-21377.94;6250727;22;20457;-72
2021/09/13 11:42:08;;;;;;;2.50;0.90;;;;;;;26.48;100.00;-21396.22;6250141;22;20457;-70
2021/09/13 11:44:43;;;;;;;0.70;0.60;;;;;;;27.47;100.00;-21422.44;6248879;22;20395;-71